Weather at Lac Qui Parle County Airport

Public forecast

Using degrees Fahrenheit for public forecast. Weather courtesy of forecast.io.

Current aviation weather report (METAR) for Lac Qui Parle County Airport

Retrieved 2022/08/12 18:15 UTC (0 seconds ago):

KDXX 121815Z AUTO 15013G21KT 10SM CLR 28/21 A2992 RMK AO2

Closest aviation forecast (TAF) to Lac Qui Parle County Airport

Closest forecast is Watertown Regional Airport, 41.7 nm (77.3 km) W. Retrieved 2022/08/12 18:33 UTC (0 seconds ago):

TAF KATY 121731Z 1218/1318 17015KT P6SM SKC FM122000 24011G19KT P6SM BKN250 FM130200 35008KT P6SM SCT250